This is the latest recevied weather packets stored in our database for station/object W5HKR. If no packets are shown the sender has not sent any weather packets the latest 10 day(s).
| Time | Temp. | Humidity | Pressure | Rain* | Wind** | Luminosity | Snow |
|---|---|---|---|---|---|---|---|
| 1778153002 | 17.22° C | 80% | 986.7 hPa | 0 mm | - | - | - |
| 1778152702 | 18.33° C | 91% | 990.6 hPa | 0 mm | - | - | - |
| 1778152553 | 18.33° C | 91% | 990.6 hPa | 0 mm | - | - | - |
| 1778152402 | 18.33° C | 91% | 990.6 hPa | 0 mm | - | - | - |
| 1778152103 | 17.22° C | 80% | 986.4 hPa | 0 mm | - | - | - |
| 1778151803 | 17.22° C | 79% | 986.3 hPa | 0 mm | - | - | - |
| 1778151474 | 18.33° C | 91% | 990.6 hPa | 0 mm | - | - | - |
| 1778151204 | 18.33° C | 91% | 990.6 hPa | 0 mm | - | - | - |
| 1778150902 | 17.22° C | 79% | 986.6 hPa | 0 mm | - | - | - |
| 1778150603 | 18.33° C | 91% | 990.6 hPa | 0 mm | - | - | - |
| 1778150393 | 17.22° C | 79% | 986.8 hPa | 0 mm | - | - | - |
| 1778150304 | 17.22° C | 79% | 986.5 hPa | 0 mm | - | - | - |
| 1778150003 | 18.33° C | 91% | 990.6 hPa | 0 mm | - | - | - |
| 1778149703 | 18.33° C | 91% | 990.6 hPa | 0 mm | - | - | - |
| 1778149404 | 18.33° C | 91% | 990.6 hPa | 0 mm | - | - | - |
| 1778149314 | 17.22° C | 79% | 986.2 hPa | 0 mm | - | - | - |
| 1778149104 | 17.22° C | 79% | 986.5 hPa | 0 mm | - | - | - |
| 1778148803 | 17.22° C | 79% | 986.1 hPa | 0 mm | - | - | - |
| 1778148502 | 18.33° C | 91% | 990.6 hPa | 0 mm | - | - | - |
| 1778148233 | 18.33° C | 91% | 990.6 hPa | 0 mm | - | - | - |
| 1778148204 | 18.33° C | 91% | 990.6 hPa | 0 mm | - | - | - |
| 1778147902 | 18.33° C | 91% | 990.6 hPa | 0 mm | - | - | - |
| 1778147604 | 18.33° C | 91% | 990.6 hPa | 0 mm | - | - | - |
| 1778147304 | 18.33° C | 91% | 990.6 hPa | 0 mm | - | - | - |
| 1778147154 | 17.22° C | 79% | 986.1 hPa | 0 mm | - | - | - |
* Rain latest hour (hover to see other rain measurements)
** Current wind speed in m/s (hover to see current wind gust speed)